sensor_id;sensor_type;location;lat;lon;timestamp;pressure;altitude;pressure_sealevel;temperature
15607;BMP180;7865;50.918;4.510;2023-02-01T00:02:20;101698.00;;;6.30
15607;BMP180;7865;50.918;4.510;2023-02-01T00:07:22;101675.00;;;6.30
15607;BMP180;7865;50.918;4.510;2023-02-01T00:12:24;101673.00;;;6.20
15607;BMP180;7865;50.918;4.510;2023-02-01T00:17:26;101680.00;;;6.20
15607;BMP180;7865;50.918;4.510;2023-02-01T00:22:28;101670.00;;;6.20
15607;BMP180;7865;50.918;4.510;2023-02-01T00:27:32;101668.00;;;6.20
15607;BMP180;7865;50.918;4.510;2023-02-01T00:32:35;101646.00;;;6.30
15607;BMP180;7865;50.918;4.510;2023-02-01T00:37:37;101666.00;;;6.30
15607;BMP180;7865;50.918;4.510;2023-02-01T00:42:39;101625.00;;;6.40
15607;BMP180;7865;50.918;4.510;2023-02-01T00:47:41;101638.00;;;6.30
15607;BMP180;7865;50.918;4.510;2023-02-01T00:52:42;101636.00;;;6.30
15607;BMP180;7865;50.918;4.510;2023-02-01T00:57:44;101629.00;;;6.20
15607;BMP180;7865;50.918;4.510;2023-02-01T01:02:46;101644.00;;;6.20
15607;BMP180;7865;50.918;4.510;2023-02-01T01:07:48;101642.00;;;6.20
15607;BMP180;7865;50.918;4.510;2023-02-01T01:12:50;101656.00;;;6.20
15607;BMP180;7865;50.918;4.510;2023-02-01T01:17:53;101650.00;;;6.30
15607;BMP180;7865;50.918;4.510;2023-02-01T01:22:57;101659.00;;;6.30
15607;BMP180;7865;50.918;4.510;2023-02-01T01:27:59;101659.00;;;6.30
15607;BMP180;7865;50.918;4.510;2023-02-01T01:33:01;101665.00;;;6.30
15607;BMP180;7865;50.918;4.510;2023-02-01T01:38:03;101657.00;;;6.30
15607;BMP180;7865;50.918;4.510;2023-02-01T01:43:13;101658.00;;;6.30
15607;BMP180;7865;50.918;4.510;2023-02-01T01:48:20;101673.00;;;6.20
15607;BMP180;7865;50.918;4.510;2023-02-01T01:53:27;101678.00;;;6.20
15607;BMP180;7865;50.918;4.510;2023-02-01T01:58:31;101684.00;;;6.20
15607;BMP180;7865;50.918;4.510;2023-02-01T02:03:39;101677.00;;;6.10
15607;BMP180;7865;50.918;4.510;2023-02-01T02:08:42;101685.00;;;6.00
15607;BMP180;7865;50.918;4.510;2023-02-01T02:13:48;101692.00;;;5.90
15607;BMP180;7865;50.918;4.510;2023-02-01T02:24:39;101690.00;;;5.60
15607;BMP180;7865;50.918;4.510;2023-02-01T02:40:31;101663.00;;;5.40
15607;BMP180;7865;50.918;4.510;2023-02-01T02:45:42;101664.00;;;5.50
15607;BMP180;7865;50.918;4.510;2023-02-01T02:51:08;101671.00;;;5.50
15607;BMP180;7865;50.918;4.510;2023-02-01T02:56:30;101659.00;;;5.50
15607;BMP180;7865;50.918;4.510;2023-02-01T03:01:52;101661.00;;;5.50
15607;BMP180;7865;50.918;4.510;2023-02-01T03:07:45;101650.00;;;5.50
15607;BMP180;7865;50.918;4.510;2023-02-01T03:12:39;101645.00;;;5.40
15607;BMP180;7865;50.918;4.510;2023-02-01T03:18:01;101651.00;;;5.40
15607;BMP180;7865;50.918;4.510;2023-02-01T03:23:06;101646.00;;;5.40
15607;BMP180;7865;50.918;4.510;2023-02-01T03:28:09;101643.00;;;5.40
15607;BMP180;7865;50.918;4.510;2023-02-01T03:33:17;101636.00;;;5.30
15607;BMP180;7865;50.918;4.510;2023-02-01T03:49:09;101646.00;;;5.30
15607;BMP180;7865;50.918;4.510;2023-02-01T03:54:14;101650.00;;;5.30
15607;BMP180;7865;50.918;4.510;2023-02-01T03:59:18;101646.00;;;5.30
15607;BMP180;7865;50.918;4.510;2023-02-01T04:04:20;101653.00;;;5.20
15607;BMP180;7865;50.918;4.510;2023-02-01T04:09:26;101655.00;;;5.20
15607;BMP180;7865;50.918;4.510;2023-02-01T04:14:28;101653.00;;;5.10
15607;BMP180;7865;50.918;4.510;2023-02-01T04:19:30;101655.00;;;5.10
15607;BMP180;7865;50.918;4.510;2023-02-01T04:24:32;101648.00;;;5.00
15607;BMP180;7865;50.918;4.510;2023-02-01T04:29:34;101654.00;;;4.90
15607;BMP180;7865;50.918;4.510;2023-02-01T04:34:36;101658.00;;;4.80
15607;BMP180;7865;50.918;4.510;2023-02-01T04:39:40;101668.00;;;4.80
15607;BMP180;7865;50.918;4.510;2023-02-01T04:44:42;101653.00;;;4.80
15607;BMP180;7865;50.918;4.510;2023-02-01T04:49:44;101667.00;;;4.70
15607;BMP180;7865;50.918;4.510;2023-02-01T04:54:46;101664.00;;;4.70
15607;BMP180;7865;50.918;4.510;2023-02-01T04:59:48;101667.00;;;4.70
15607;BMP180;7865;50.918;4.510;2023-02-01T05:04:50;101666.00;;;4.60
15607;BMP180;7865;50.918;4.510;2023-02-01T05:09:52;101664.00;;;4.60
15607;BMP180;7865;50.918;4.510;2023-02-01T05:14:54;101660.00;;;4.60
15607;BMP180;7865;50.918;4.510;2023-02-01T05:19:56;101668.00;;;4.50
15607;BMP180;7865;50.918;4.510;2023-02-01T05:24:58;101670.00;;;4.60
15607;BMP180;7865;50.918;4.510;2023-02-01T05:30:00;101652.00;;;4.50
15607;BMP180;7865;50.918;4.510;2023-02-01T05:35:02;101648.00;;;4.50
15607;BMP180;7865;50.918;4.510;2023-02-01T05:40:05;101634.00;;;4.50
15607;BMP180;7865;50.918;4.510;2023-02-01T05:45:07;101634.00;;;4.30
15607;BMP180;7865;50.918;4.510;2023-02-01T05:50:09;101654.00;;;4.30
15607;BMP180;7865;50.918;4.510;2023-02-01T05:55:11;101661.00;;;4.30
15607;BMP180;7865;50.918;4.510;2023-02-01T06:00:13;101668.00;;;4.30
15607;BMP180;7865;50.918;4.510;2023-02-01T06:05:19;101677.00;;;4.40
15607;BMP180;7865;50.918;4.510;2023-02-01T06:10:21;101677.00;;;4.40
15607;BMP180;7865;50.918;4.510;2023-02-01T06:15:24;101687.00;;;4.30
15607;BMP180;7865;50.918;4.510;2023-02-01T06:20:26;101688.00;;;4.30
15607;BMP180;7865;50.918;4.510;2023-02-01T06:25:28;101685.00;;;4.30
15607;BMP180;7865;50.918;4.510;2023-02-01T06:30:31;101678.00;;;4.30
15607;BMP180;7865;50.918;4.510;2023-02-01T06:35:33;101676.00;;;4.30
15607;BMP180;7865;50.918;4.510;2023-02-01T06:40:35;101669.00;;;4.30
15607;BMP180;7865;50.918;4.510;2023-02-01T06:45:37;101670.00;;;4.40
15607;BMP180;7865;50.918;4.510;2023-02-01T06:50:40;101682.00;;;4.40
15607;BMP180;7865;50.918;4.510;2023-02-01T06:55:53;101677.00;;;4.40
15607;BMP180;7865;50.918;4.510;2023-02-01T07:00:55;101674.00;;;4.30
15607;BMP180;7865;50.918;4.510;2023-02-01T07:05:57;101676.00;;;4.30
15607;BMP180;7865;50.918;4.510;2023-02-01T07:11:13;101691.00;;;4.30
15607;BMP180;7865;50.918;4.510;2023-02-01T07:16:18;101692.00;;;4.40
15607;BMP180;7865;50.918;4.510;2023-02-01T07:21:21;101686.00;;;4.50
15607;BMP180;7865;50.918;4.510;2023-02-01T07:26:22;101677.00;;;4.50
15607;BMP180;7865;50.918;4.510;2023-02-01T07:31:24;101679.00;;;4.60
15607;BMP180;7865;50.918;4.510;2023-02-01T07:36:28;101682.00;;;4.60
15607;BMP180;7865;50.918;4.510;2023-02-01T07:41:30;101682.00;;;4.70
15607;BMP180;7865;50.918;4.510;2023-02-01T07:46:32;101689.00;;;4.70
15607;BMP180;7865;50.918;4.510;2023-02-01T07:51:33;101692.00;;;4.70
15607;BMP180;7865;50.918;4.510;2023-02-01T07:56:36;101689.00;;;4.80
15607;BMP180;7865;50.918;4.510;2023-02-01T08:01:38;101700.00;;;5.00
15607;BMP180;7865;50.918;4.510;2023-02-01T08:06:40;101701.00;;;5.30
15607;BMP180;7865;50.918;4.510;2023-02-01T08:11:42;101703.00;;;5.50
15607;BMP180;7865;50.918;4.510;2023-02-01T08:16:43;101713.00;;;5.70
15607;BMP180;7865;50.918;4.510;2023-02-01T08:21:46;101716.00;;;5.70
15607;BMP180;7865;50.918;4.510;2023-02-01T08:26:50;101722.00;;;5.70
15607;BMP180;7865;50.918;4.510;2023-02-01T08:31:52;101725.00;;;5.80
15607;BMP180;7865;50.918;4.510;2023-02-01T08:36:56;101730.00;;;6.00
15607;BMP180;7865;50.918;4.510;2023-02-01T08:42:01;101728.00;;;6.10
15607;BMP180;7865;50.918;4.510;2023-02-01T08:47:22;101731.00;;;6.20
15607;BMP180;7865;50.918;4.510;2023-02-01T08:52:24;101721.00;;;6.40
15607;BMP180;7865;50.918;4.510;2023-02-01T08:57:26;101726.00;;;6.60
15607;BMP180;7865;50.918;4.510;2023-02-01T09:02:28;101726.00;;;6.60
15607;BMP180;7865;50.918;4.510;2023-02-01T09:07:30;101722.00;;;6.60
15607;BMP180;7865;50.918;4.510;2023-02-01T09:12:33;101713.00;;;6.80
15607;BMP180;7865;50.918;4.510;2023-02-01T09:17:35;101700.00;;;7.30
15607;BMP180;7865;50.918;4.510;2023-02-01T09:22:38;101708.00;;;7.30
15607;BMP180;7865;50.918;4.510;2023-02-01T09:27:39;101695.00;;;7.50
15607;BMP180;7865;50.918;4.510;2023-02-01T09:32:41;101694.00;;;8.10
15607;BMP180;7865;50.918;4.510;2023-02-01T09:37:43;101701.00;;;8.50
15607;BMP180;7865;50.918;4.510;2023-02-01T09:48:16;101700.00;;;9.00
15607;BMP180;7865;50.918;4.510;2023-02-01T09:53:38;101696.00;;;9.30
15607;BMP180;7865;50.918;4.510;2023-02-01T09:58:46;101698.00;;;9.50
15607;BMP180;7865;50.918;4.510;2023-02-01T10:03:51;101710.00;;;9.70
15607;BMP180;7865;50.918;4.510;2023-02-01T10:25:37;101714.00;;;9.90
15607;BMP180;7865;50.918;4.510;2023-02-01T10:30:46;101719.00;;;10.10
15607;BMP180;7865;50.918;4.510;2023-02-01T10:35:55;101717.00;;;10.40
15607;BMP180;7865;50.918;4.510;2023-02-01T10:41:12;101713.00;;;10.70
15607;BMP180;7865;50.918;4.510;2023-02-01T10:46:16;101727.00;;;10.80
15607;BMP180;7865;50.918;4.510;2023-02-01T10:51:27;101706.00;;;11.10
15607;BMP180;7865;50.918;4.510;2023-02-01T10:56:29;101712.00;;;11.40
15607;BMP180;7865;50.918;4.510;2023-02-01T11:01:41;101712.00;;;11.20
15607;BMP180;7865;50.918;4.510;2023-02-01T11:06:54;101715.00;;;11.40
15607;BMP180;7865;50.918;4.510;2023-02-01T11:12:24;101701.00;;;11.70
15607;BMP180;7865;50.918;4.510;2023-02-01T11:17:40;101699.00;;;11.40
15607;BMP180;7865;50.918;4.510;2023-02-01T11:23:02;101678.00;;;11.20
15607;BMP180;7865;50.918;4.510;2023-02-01T11:28:04;101670.00;;;11.00
15607;BMP180;7865;50.918;4.510;2023-02-01T11:33:10;101669.00;;;10.80
15607;BMP180;7865;50.918;4.510;2023-02-01T11:43:24;101671.00;;;9.90
15607;BMP180;7865;50.918;4.510;2023-02-01T11:48:32;101659.00;;;10.30
15607;BMP180;7865;50.918;4.510;2023-02-01T11:54:02;101669.00;;;10.90
15607;BMP180;7865;50.918;4.510;2023-02-01T12:04:50;101664.00;;;11.50
15607;BMP180;7865;50.918;4.510;2023-02-01T12:10:18;101648.00;;;12.20
15607;BMP180;7865;50.918;4.510;2023-02-01T12:21:10;101639.00;;;13.30
15607;BMP180;7865;50.918;4.510;2023-02-01T12:26:38;101643.00;;;13.40
15607;BMP180;7865;50.918;4.510;2023-02-01T12:31:58;101647.00;;;13.60
15607;BMP180;7865;50.918;4.510;2023-02-01T12:43:00;101637.00;;;12.90
15607;BMP180;7865;50.918;4.510;2023-02-01T12:48:15;101626.00;;;12.80
15607;BMP180;7865;50.918;4.510;2023-02-01T12:53:42;101617.00;;;12.70
15607;BMP180;7865;50.918;4.510;2023-02-01T12:58:52;101624.00;;;13.10
15607;BMP180;7865;50.918;4.510;2023-02-01T13:04:03;101612.00;;;13.60
15607;BMP180;7865;50.918;4.510;2023-02-01T13:09:25;101598.00;;;14.20
15607;BMP180;7865;50.918;4.510;2023-02-01T13:15:02;101601.00;;;13.00
15607;BMP180;7865;50.918;4.510;2023-02-01T13:25:35;101589.00;;;12.30
15607;BMP180;7865;50.918;4.510;2023-02-01T13:30:52;101598.00;;;12.00
15607;BMP180;7865;50.918;4.510;2023-02-01T13:41:52;101619.00;;;12.10
15607;BMP180;7865;50.918;4.510;2023-02-01T13:46:58;101613.00;;;11.60
15607;BMP180;7865;50.918;4.510;2023-02-01T13:52:00;101620.00;;;11.30
15607;BMP180;7865;50.918;4.510;2023-02-01T13:57:04;101612.00;;;11.20
15607;BMP180;7865;50.918;4.510;2023-02-01T14:13:21;101594.00;;;11.20
15607;BMP180;7865;50.918;4.510;2023-02-01T14:23:41;101624.00;;;11.10
15607;BMP180;7865;50.918;4.510;2023-02-01T14:34:29;101646.00;;;10.30
15607;BMP180;7865;50.918;4.510;2023-02-01T14:39:46;101642.00;;;10.20
15607;BMP180;7865;50.918;4.510;2023-02-01T14:44:51;101653.00;;;10.20
15607;BMP180;7865;50.918;4.510;2023-02-01T14:50:12;101662.00;;;10.10
15607;BMP180;7865;50.918;4.510;2023-02-01T14:55:20;101635.00;;;10.00
15607;BMP180;7865;50.918;4.510;2023-02-01T15:00:29;101653.00;;;9.80
15607;BMP180;7865;50.918;4.510;2023-02-01T15:05:32;101667.00;;;9.60
15607;BMP180;7865;50.918;4.510;2023-02-01T15:10:42;101676.00;;;9.50
15607;BMP180;7865;50.918;4.510;2023-02-01T15:15:44;101682.00;;;9.40
15607;BMP180;7865;50.918;4.510;2023-02-01T15:20:57;101682.00;;;9.40
15607;BMP180;7865;50.918;4.510;2023-02-01T15:26:27;101683.00;;;9.30
15607;BMP180;7865;50.918;4.510;2023-02-01T15:31:34;101685.00;;;9.30
15607;BMP180;7865;50.918;4.510;2023-02-01T15:36:37;101692.00;;;9.30
15607;BMP180;7865;50.918;4.510;2023-02-01T15:41:40;101691.00;;;9.20
15607;BMP180;7865;50.918;4.510;2023-02-01T15:46:45;101660.00;;;9.10
15607;BMP180;7865;50.918;4.510;2023-02-01T15:51:49;101688.00;;;9.00
15607;BMP180;7865;50.918;4.510;2023-02-01T15:56:53;101669.00;;;9.00
15607;BMP180;7865;50.918;4.510;2023-02-01T16:01:56;101693.00;;;8.90
15607;BMP180;7865;50.918;4.510;2023-02-01T16:07:03;101692.00;;;8.90
15607;BMP180;7865;50.918;4.510;2023-02-01T16:17:35;101696.00;;;8.80
15607;BMP180;7865;50.918;4.510;2023-02-01T16:22:37;101700.00;;;8.70
15607;BMP180;7865;50.918;4.510;2023-02-01T16:27:39;101714.00;;;8.70
15607;BMP180;7865;50.918;4.510;2023-02-01T16:32:41;101703.00;;;8.70
15607;BMP180;7865;50.918;4.510;2023-02-01T16:37:43;101716.00;;;8.60
15607;BMP180;7865;50.918;4.510;2023-02-01T16:42:49;101728.00;;;8.60
15607;BMP180;7865;50.918;4.510;2023-02-01T16:47:54;101727.00;;;8.60
15607;BMP180;7865;50.918;4.510;2023-02-01T16:52:56;101733.00;;;8.60
15607;BMP180;7865;50.918;4.510;2023-02-01T16:57:58;101728.00;;;8.60
15607;BMP180;7865;50.918;4.510;2023-02-01T17:03:00;101739.00;;;8.50
15607;BMP180;7865;50.918;4.510;2023-02-01T17:08:05;101746.00;;;8.50
15607;BMP180;7865;50.918;4.510;2023-02-01T17:13:12;101748.00;;;8.50
15607;BMP180;7865;50.918;4.510;2023-02-01T17:18:15;101755.00;;;8.50
15607;BMP180;7865;50.918;4.510;2023-02-01T17:23:19;101763.00;;;8.40
15607;BMP180;7865;50.918;4.510;2023-02-01T17:28:21;101756.00;;;8.40
15607;BMP180;7865;50.918;4.510;2023-02-01T17:38:36;101762.00;;;8.40
15607;BMP180;7865;50.918;4.510;2023-02-01T17:43:39;101766.00;;;8.40
15607;BMP180;7865;50.918;4.510;2023-02-01T17:48:42;101768.00;;;8.30
15607;BMP180;7865;50.918;4.510;2023-02-01T17:53:44;101767.00;;;8.30
15607;BMP180;7865;50.918;4.510;2023-02-01T17:58:47;101766.00;;;8.30
15607;BMP180;7865;50.918;4.510;2023-02-01T18:03:49;101773.00;;;8.30
15607;BMP180;7865;50.918;4.510;2023-02-01T18:08:54;101761.00;;;8.30
15607;BMP180;7865;50.918;4.510;2023-02-01T18:13:56;101768.00;;;8.30
15607;BMP180;7865;50.918;4.510;2023-02-01T18:18:58;101767.00;;;8.20
15607;BMP180;7865;50.918;4.510;2023-02-01T18:24:03;101774.00;;;8.20
15607;BMP180;7865;50.918;4.510;2023-02-01T18:29:05;101768.00;;;8.00
15607;BMP180;7865;50.918;4.510;2023-02-01T18:34:08;101763.00;;;7.90
15607;BMP180;7865;50.918;4.510;2023-02-01T18:39:11;101765.00;;;7.90
15607;BMP180;7865;50.918;4.510;2023-02-01T18:44:14;101770.00;;;7.90
15607;BMP180;7865;50.918;4.510;2023-02-01T18:49:16;101778.00;;;7.90
15607;BMP180;7865;50.918;4.510;2023-02-01T18:54:19;101772.00;;;8.00
15607;BMP180;7865;50.918;4.510;2023-02-01T18:59:21;101768.00;;;8.00
15607;BMP180;7865;50.918;4.510;2023-02-01T19:04:23;101755.00;;;8.00
15607;BMP180;7865;50.918;4.510;2023-02-01T19:09:26;101759.00;;;8.10
15607;BMP180;7865;50.918;4.510;2023-02-01T19:14:29;101755.00;;;8.10
15607;BMP180;7865;50.918;4.510;2023-02-01T19:19:31;101762.00;;;8.10
15607;BMP180;7865;50.918;4.510;2023-02-01T19:24:33;101759.00;;;8.10
15607;BMP180;7865;50.918;4.510;2023-02-01T19:29:35;101755.00;;;8.10
15607;BMP180;7865;50.918;4.510;2023-02-01T19:34:41;101754.00;;;8.10
15607;BMP180;7865;50.918;4.510;2023-02-01T19:39:43;101755.00;;;8.10
15607;BMP180;7865;50.918;4.510;2023-02-01T19:44:45;101765.00;;;8.10
15607;BMP180;7865;50.918;4.510;2023-02-01T19:49:47;101763.00;;;8.10
15607;BMP180;7865;50.918;4.510;2023-02-01T19:54:49;101767.00;;;8.10
15607;BMP180;7865;50.918;4.510;2023-02-01T19:59:51;101766.00;;;8.10
15607;BMP180;7865;50.918;4.510;2023-02-01T20:04:53;101758.00;;;8.10
15607;BMP180;7865;50.918;4.510;2023-02-01T20:09:55;101760.00;;;8.10
15607;BMP180;7865;50.918;4.510;2023-02-01T20:14:57;101757.00;;;8.10
15607;BMP180;7865;50.918;4.510;2023-02-01T20:19:59;101765.00;;;8.10
15607;BMP180;7865;50.918;4.510;2023-02-01T20:25:01;101764.00;;;8.10
15607;BMP180;7865;50.918;4.510;2023-02-01T20:30:06;101772.00;;;8.10
15607;BMP180;7865;50.918;4.510;2023-02-01T20:35:09;101775.00;;;8.10
15607;BMP180;7865;50.918;4.510;2023-02-01T20:40:11;101767.00;;;8.10
15607;BMP180;7865;50.918;4.510;2023-02-01T20:45:13;101764.00;;;8.10
15607;BMP180;7865;50.918;4.510;2023-02-01T20:50:16;101758.00;;;8.10
15607;BMP180;7865;50.918;4.510;2023-02-01T20:55:18;101758.00;;;8.10
15607;BMP180;7865;50.918;4.510;2023-02-01T21:00:20;101765.00;;;8.10
15607;BMP180;7865;50.918;4.510;2023-02-01T21:05:25;101768.00;;;8.10
15607;BMP180;7865;50.918;4.510;2023-02-01T21:10:40;101763.00;;;8.00
15607;BMP180;7865;50.918;4.510;2023-02-01T21:15:42;101773.00;;;8.00
15607;BMP180;7865;50.918;4.510;2023-02-01T21:20:44;101776.00;;;8.00
15607;BMP180;7865;50.918;4.510;2023-02-01T21:25:47;101776.00;;;8.00
15607;BMP180;7865;50.918;4.510;2023-02-01T21:30:49;101779.00;;;8.10
15607;BMP180;7865;50.918;4.510;2023-02-01T21:35:51;101773.00;;;8.00
15607;BMP180;7865;50.918;4.510;2023-02-01T21:40:53;101785.00;;;8.00
15607;BMP180;7865;50.918;4.510;2023-02-01T21:46:14;101788.00;;;8.00
15607;BMP180;7865;50.918;4.510;2023-02-01T21:51:16;101789.00;;;8.00
15607;BMP180;7865;50.918;4.510;2023-02-01T21:56:19;101783.00;;;8.10
15607;BMP180;7865;50.918;4.510;2023-02-01T22:01:21;101790.00;;;8.10
15607;BMP180;7865;50.918;4.510;2023-02-01T22:06:44;101799.00;;;8.10
15607;BMP180;7865;50.918;4.510;2023-02-01T22:11:50;101801.00;;;8.00
15607;BMP180;7865;50.918;4.510;2023-02-01T22:16:52;101802.00;;;8.00
15607;BMP180;7865;50.918;4.510;2023-02-01T22:21:54;101803.00;;;8.00
15607;BMP180;7865;50.918;4.510;2023-02-01T22:26:56;101816.00;;;8.00
15607;BMP180;7865;50.918;4.510;2023-02-01T22:32:15;101822.00;;;8.00
15607;BMP180;7865;50.918;4.510;2023-02-01T22:37:17;101824.00;;;8.00
15607;BMP180;7865;50.918;4.510;2023-02-01T22:42:19;101828.00;;;8.00
15607;BMP180;7865;50.918;4.510;2023-02-01T22:47:21;101823.00;;;8.00
15607;BMP180;7865;50.918;4.510;2023-02-01T22:52:23;101828.00;;;8.00
15607;BMP180;7865;50.918;4.510;2023-02-01T22:57:25;101831.00;;;8.00
15607;BMP180;7865;50.918;4.510;2023-02-01T23:02:27;101834.00;;;8.10
15607;BMP180;7865;50.918;4.510;2023-02-01T23:07:29;101831.00;;;8.10
15607;BMP180;7865;50.918;4.510;2023-02-01T23:12:30;101826.00;;;8.00
15607;BMP180;7865;50.918;4.510;2023-02-01T23:17:36;101824.00;;;8.00
15607;BMP180;7865;50.918;4.510;2023-02-01T23:22:38;101828.00;;;8.10
15607;BMP180;7865;50.918;4.510;2023-02-01T23:27:40;101829.00;;;8.00
15607;BMP180;7865;50.918;4.510;2023-02-01T23:32:42;101819.00;;;8.00
15607;BMP180;7865;50.918;4.510;2023-02-01T23:37:44;101830.00;;;8.00
15607;BMP180;7865;50.918;4.510;2023-02-01T23:42:46;101833.00;;;8.00
15607;BMP180;7865;50.918;4.510;2023-02-01T23:48:08;101827.00;;;8.00
15607;BMP180;7865;50.918;4.510;2023-02-01T23:53:10;101833.00;;;8.00
15607;BMP180;7865;50.918;4.510;2023-02-01T23:58:12;101826.00;;;8.00
